Terminal Aerodrome Forecast
Issued by NWS Jackson, MS

Home | Current Version | Previous Version | Text Only | Print | Product List | Glossary On
Versions: 1 2 3 4 5 6 7 8 9 10 11 12 13 14 15 16 17 18 19 20 21
000
FTUS44 KJAN 061726
TAFHBG
TAF
KHBG 061726Z 0618/0718 20005KT P6SM SCT040
     FM070000 19004KT P6SM SCT250
     FM070900 VRB02KT 4SM BR SCT250
     FM071300 22006KT P6SM SCT030=

USA.gov is the U.S. government's official web portal to all federal, state and local government web resources and services.